createdAt,value
2018-03-03T00:02:02.072Z,100554.44
2018-03-03T00:04:29.836Z,100568.30
2018-03-03T00:06:57.510Z,100568.75
2018-03-03T00:09:25.236Z,100565.65
2018-03-03T00:11:52.899Z,100567.72
2018-03-03T00:14:20.606Z,100562.64
2018-03-03T00:16:48.309Z,100563.98
2018-03-03T00:19:16.022Z,100551.97
2018-03-03T00:21:43.717Z,100561.28
2018-03-03T00:24:11.402Z,100559.80
2018-03-03T00:26:39.113Z,100567.02
2018-03-03T00:29:06.826Z,100561.78
2018-03-03T00:31:34.516Z,100563.38
2018-03-03T00:34:02.404Z,100572.93
2018-03-03T00:36:30.128Z,100575.16
2018-03-03T00:38:57.815Z,100571.00
2018-03-03T00:41:25.502Z,100571.11
2018-03-03T00:43:53.154Z,100569.26
2018-03-03T00:46:20.851Z,100567.52
2018-03-03T00:48:48.549Z,100567.52
2018-03-03T00:51:16.249Z,100569.16
2018-03-03T00:53:43.932Z,100562.36
2018-03-03T00:56:11.692Z,100570.39
2018-03-03T00:58:39.350Z,100568.28
2018-03-03T01:01:07.809Z,100567.11
2018-03-03T01:03:35.464Z,100573.06
2018-03-03T01:06:03.192Z,100577.67
2018-03-03T01:08:31.004Z,100583.26
2018-03-03T01:10:58.711Z,100585.71
2018-03-03T01:13:26.386Z,100586.03
2018-03-03T01:15:54.754Z,100577.08
2018-03-03T01:18:22.415Z,100584.62
2018-03-03T01:20:50.159Z,100581.66
2018-03-03T01:23:17.840Z,100581.99
2018-03-03T01:25:46.396Z,100587.80
2018-03-03T01:28:14.053Z,100581.42
2018-03-03T01:30:41.834Z,100592.17
2018-03-03T01:33:09.523Z,100584.95
2018-03-03T01:35:37.231Z,100582.89
2018-03-03T01:38:04.974Z,100579.47
2018-03-03T01:40:32.676Z,100575.55
2018-03-03T01:43:00.347Z,100580.22
2018-03-03T01:45:28.116Z,100583.52
2018-03-03T01:47:55.795Z,100582.42
2018-03-03T01:50:23.720Z,100580.38
2018-03-03T01:52:51.395Z,100582.02
2018-03-03T01:55:19.447Z,100572.52
2018-03-03T01:57:47.145Z,100577.97
2018-03-03T02:00:14.837Z,100572.33
2018-03-03T02:02:42.551Z,100570.52
2018-03-03T02:05:10.196Z,100567.99
2018-03-03T02:07:37.883Z,100572.45
2018-03-03T02:10:05.567Z,100575.30
2018-03-03T02:12:33.255Z,100569.39
2018-03-03T02:15:00.933Z,100572.69
2018-03-03T02:17:28.636Z,100562.96
2018-03-03T02:19:56.313Z,100560.11
2018-03-03T02:22:25.517Z,100559.78
2018-03-03T02:24:53.771Z,100563.59
2018-03-03T02:27:21.609Z,100564.08
2018-03-03T02:29:49.361Z,100558.31
2018-03-03T02:32:17.044Z,100553.84
2018-03-03T02:34:45.507Z,100554.03
2018-03-03T02:37:13.207Z,100555.89
2018-03-03T02:39:40.861Z,100560.80
2018-03-03T02:42:08.573Z,100556.88
2018-03-03T02:44:36.284Z,100566.72
2018-03-03T02:47:03.972Z,100557.44
2018-03-03T02:49:31.643Z,100562.54
2018-03-03T02:51:59.332Z,100557.66
2018-03-03T02:54:27.054Z,100550.70
2018-03-03T02:56:54.746Z,100552.29
2018-03-03T02:59:22.499Z,100549.30
2018-03-03T03:01:50.243Z,100558.92
2018-03-03T03:04:17.971Z,100561.73
2018-03-03T03:06:45.715Z,100560.59
2018-03-03T03:09:13.395Z,100558.27
2018-03-03T03:11:41.085Z,100563.25
2018-03-03T03:14:08.730Z,100561.94
2018-03-03T03:16:36.482Z,100564.42
2018-03-03T03:19:04.883Z,100560.70
2018-03-03T03:21:32.578Z,100561.81
2018-03-03T03:24:00.234Z,100562.32
2018-03-03T03:26:27.926Z,100556.87
2018-03-03T03:28:55.574Z,100556.89
2018-03-03T03:31:23.264Z,100548.27
2018-03-03T03:33:50.987Z,100546.86
2018-03-03T03:36:18.677Z,100548.36
2018-03-03T03:38:46.378Z,100554.30
2018-03-03T03:41:14.042Z,100554.59
2018-03-03T03:43:41.726Z,100566.26
2018-03-03T03:46:09.383Z,100548.48
2018-03-03T03:48:37.076Z,100552.48
2018-03-03T03:51:04.760Z,100551.41
2018-03-03T03:53:32.471Z,100540.70
2018-03-03T03:56:00.191Z,100545.04
2018-03-03T03:58:27.910Z,100542.55
2018-03-03T04:00:56.632Z,100541.59
2018-03-03T04:03:24.371Z,100543.86
2018-03-03T04:05:52.058Z,100554.38
2018-03-03T04:08:19.751Z,100560.02
2018-03-03T04:10:47.995Z,100563.44
2018-03-03T04:13:15.694Z,100560.81
2018-03-03T04:15:43.456Z,100561.62
2018-03-03T04:18:11.176Z,100568.06
2018-03-03T04:20:38.903Z,100567.13
2018-03-03T04:23:06.607Z,100557.88
2018-03-03T04:25:34.294Z,100556.70
2018-03-03T04:28:02.006Z,100555.77
2018-03-03T04:30:29.732Z,100559.84
2018-03-03T04:32:57.449Z,100563.19
2018-03-03T04:35:25.160Z,100563.14
2018-03-03T04:37:53.686Z,100554.84
2018-03-03T04:40:21.951Z,100556.41
2018-03-03T04:42:49.666Z,100550.72
2018-03-03T04:45:17.354Z,100546.84
2018-03-03T04:47:45.051Z,100542.84
2018-03-03T04:50:12.743Z,100547.31
2018-03-03T04:52:40.449Z,100543.98
2018-03-03T04:55:08.118Z,100538.63
2018-03-03T04:57:36.189Z,100531.44
2018-03-03T05:00:09.604Z,100536.95
2018-03-03T05:05:45.036Z,100536.41
2018-03-03T05:08:15.268Z,100535.86
2018-03-03T05:10:45.287Z,100534.97
2018-03-03T05:13:13.710Z,100535.65
2018-03-03T05:15:46.953Z,100540.20
2018-03-03T05:18:20.236Z,100534.17
2018-03-03T05:20:53.522Z,100543.23
2018-03-03T05:23:26.784Z,100542.34
2018-03-03T05:26:00.031Z,100528.75
2018-03-03T05:28:33.366Z,100534.98
2018-03-03T05:31:06.645Z,100539.40
2018-03-03T05:33:43.144Z,100533.34
2018-03-03T05:36:16.302Z,100534.01
2018-03-03T05:38:49.634Z,100540.62
2018-03-03T05:41:37.208Z,100547.14
2018-03-03T05:44:10.572Z,100547.34
2018-03-03T05:46:39.087Z,100550.80
2018-03-03T05:49:07.745Z,100547.36
2018-03-03T05:54:40.014Z,100560.72
2018-03-03T05:57:09.155Z,100551.80
2018-03-03T05:59:42.496Z,100552.28
2018-03-03T06:02:10.415Z,100549.45
2018-03-03T06:04:43.723Z,100546.17
2018-03-03T06:07:22.086Z,100547.69
2018-03-03T06:09:54.463Z,100549.14
2018-03-03T06:12:22.116Z,100553.57
2018-03-03T06:14:49.999Z,100547.18
2018-03-03T06:17:17.643Z,100546.55
2018-03-03T06:19:45.329Z,100553.62
2018-03-03T06:22:12.998Z,100553.32
2018-03-03T06:24:40.681Z,100560.73
2018-03-03T06:27:08.405Z,100551.19
2018-03-03T06:29:36.095Z,100543.90
2018-03-03T06:32:03.750Z,100546.05
2018-03-03T06:34:31.466Z,100538.63
2018-03-03T06:36:59.113Z,100545.36
2018-03-03T06:39:26.974Z,100542.73
2018-03-03T06:41:54.623Z,100541.86
2018-03-03T06:44:22.315Z,100542.64
2018-03-03T06:46:49.964Z,100538.23
2018-03-03T06:49:17.651Z,100539.85
2018-03-03T06:51:45.454Z,100533.78
2018-03-03T06:54:13.132Z,100537.57
2018-03-03T06:56:40.770Z,100534.44
2018-03-03T06:59:08.444Z,100531.61
2018-03-03T07:01:36.080Z,100526.77
2018-03-03T07:04:03.882Z,100527.89
2018-03-03T07:06:31.530Z,100528.95
2018-03-03T07:08:59.226Z,100531.03
2018-03-03T07:11:26.894Z,100528.81
2018-03-03T07:13:54.598Z,100526.23
2018-03-03T07:16:22.259Z,100519.38
2018-03-03T07:18:50.310Z,100520.27
2018-03-03T07:21:17.964Z,100528.95
2018-03-03T07:23:45.665Z,100522.98
2018-03-03T07:26:13.346Z,100517.77
2018-03-03T07:28:41.033Z,100521.09
2018-03-03T07:31:08.697Z,100521.63
2018-03-03T07:33:36.389Z,100521.94
2018-03-03T07:36:04.080Z,100521.31
2018-03-03T07:38:31.764Z,100513.64
2018-03-03T07:40:59.434Z,100518.51
2018-03-03T07:43:27.190Z,100516.64
2018-03-03T07:45:54.908Z,100513.62
2018-03-03T07:48:22.555Z,100515.53
2018-03-03T07:50:50.421Z,100516.71
2018-03-03T07:53:18.222Z,100508.43
2018-03-03T07:55:46.035Z,100515.77
2018-03-03T07:58:25.391Z,100507.35
2018-03-03T08:00:53.085Z,100512.80
2018-03-03T08:03:20.742Z,100504.73
2018-03-03T08:05:48.545Z,100502.30
2018-03-03T08:08:16.250Z,100501.33
2018-03-03T08:10:43.972Z,100497.77
2018-03-03T08:13:11.654Z,100506.36
2018-03-03T08:15:39.356Z,100493.36
2018-03-03T08:18:07.118Z,100489.64
2018-03-03T08:20:34.812Z,100494.33
2018-03-03T08:23:02.504Z,100498.72
2018-03-03T08:25:30.196Z,100507.61
2018-03-03T08:27:57.858Z,100491.94
2018-03-03T08:30:25.546Z,100486.95
2018-03-03T08:32:53.201Z,100491.70
2018-03-03T08:35:20.888Z,100490.43
2018-03-03T08:37:48.562Z,100493.29
2018-03-03T08:40:16.246Z,100491.11
2018-03-03T08:42:43.882Z,100495.85
2018-03-03T08:45:11.556Z,100490.30
2018-03-03T08:47:39.254Z,100495.94
2018-03-03T08:50:06.932Z,100496.23
2018-03-03T08:52:34.597Z,100486.87
2018-03-03T08:55:02.288Z,100490.73
2018-03-03T08:57:29.927Z,100485.38
2018-03-03T08:59:57.632Z,100497.95
2018-03-03T09:02:25.265Z,100486.05
2018-03-03T09:04:52.958Z,100485.96
2018-03-03T09:07:20.610Z,100492.42
2018-03-03T09:09:48.275Z,100488.40
2018-03-03T09:12:15.899Z,100488.22
2018-03-03T09:14:43.568Z,100482.58
2018-03-03T09:17:11.218Z,100491.88
2018-03-03T09:19:38.880Z,100490.16
2018-03-03T09:22:06.521Z,100502.69
2018-03-03T09:24:34.182Z,100491.23
2018-03-03T09:27:01.823Z,100493.39
2018-03-03T09:29:29.452Z,100494.78
2018-03-03T09:31:57.126Z,100486.94
2018-03-03T09:34:24.748Z,100478.99
2018-03-03T09:36:52.441Z,100477.94
2018-03-03T09:39:20.072Z,100473.56
2018-03-03T09:41:47.782Z,100471.38
2018-03-03T09:44:15.412Z,100466.69
2018-03-03T09:46:43.090Z,100470.53
2018-03-03T09:49:10.744Z,100468.27
2018-03-03T09:51:38.594Z,100458.34
2018-03-03T09:54:06.434Z,100467.08
2018-03-03T09:56:34.265Z,100471.05
2018-03-03T09:59:02.046Z,100445.28
2018-03-03T10:01:29.841Z,100461.81
2018-03-03T10:03:57.586Z,100455.41
2018-03-03T10:06:25.410Z,100457.20
2018-03-03T10:08:53.254Z,100454.06
2018-03-03T10:11:21.050Z,100442.41
2018-03-03T10:13:48.732Z,100453.98
2018-03-03T10:16:16.438Z,100451.45
2018-03-03T10:18:44.098Z,100444.85
2018-03-03T10:21:11.843Z,100442.36
2018-03-03T10:23:39.550Z,100455.88
2018-03-03T10:26:07.259Z,100456.55
2018-03-03T10:28:49.196Z,100452.17
2018-03-03T10:31:17.330Z,100445.62
2018-03-03T10:33:44.970Z,100444.06
2018-03-03T10:36:12.677Z,100441.70
2018-03-03T10:38:40.335Z,100417.39
2018-03-03T10:41:08.038Z,100436.05
2018-03-03T10:43:35.766Z,100432.72
2018-03-03T10:46:03.473Z,100432.98
2018-03-03T10:48:31.152Z,100440.80
2018-03-03T10:50:58.817Z,100448.79
2018-03-03T10:53:26.619Z,100435.98
2018-03-03T10:55:54.338Z,100420.13
2018-03-03T10:58:22.061Z,100422.50
2018-03-03T11:00:50.566Z,100411.42
2018-03-03T11:03:18.291Z,100419.28
2018-03-03T11:05:45.994Z,100424.32
2018-03-03T11:08:13.786Z,100419.86
2018-03-03T11:10:41.478Z,100408.77
2018-03-03T11:13:09.206Z,100411.77
2018-03-03T11:15:36.890Z,100411.90
2018-03-03T11:18:04.618Z,100403.63
2018-03-03T11:20:32.310Z,100396.50
2018-03-03T11:23:00.116Z,100395.85
2018-03-03T11:25:27.774Z,100399.44
2018-03-03T11:27:55.496Z,100403.21
2018-03-03T11:30:23.214Z,100400.75
2018-03-03T11:32:50.932Z,100400.50
2018-03-03T11:35:18.615Z,100401.23
2018-03-03T11:37:46.335Z,100403.20
2018-03-03T11:40:14.055Z,100397.59
2018-03-03T11:42:41.790Z,100388.61
2018-03-03T11:45:09.474Z,100392.94
2018-03-03T11:47:37.193Z,100392.28
2018-03-03T11:50:04.899Z,100388.72
2018-03-03T11:52:32.576Z,100388.44
2018-03-03T11:55:00.253Z,100390.27
2018-03-03T11:57:27.996Z,100382.83
2018-03-03T11:59:55.676Z,100373.97
2018-03-03T12:02:23.458Z,100375.25
2018-03-03T12:04:51.156Z,100383.44
2018-03-03T12:07:18.893Z,100387.20
2018-03-03T12:09:46.572Z,100374.05
2018-03-03T12:12:14.292Z,100372.72
2018-03-03T12:14:42.010Z,100371.20
2018-03-03T12:17:09.711Z,100371.27
2018-03-03T12:19:37.377Z,100373.55
2018-03-03T12:22:05.078Z,100378.97
2018-03-03T12:24:32.770Z,100380.83
2018-03-03T12:27:00.502Z,100381.25
2018-03-03T12:29:28.185Z,100378.92
2018-03-03T12:31:55.931Z,100382.54
2018-03-03T12:34:23.674Z,100382.72
2018-03-03T12:36:51.397Z,100372.27
2018-03-03T12:39:19.171Z,100378.82
2018-03-03T12:41:46.897Z,100383.52
2018-03-03T12:44:14.674Z,100381.73
2018-03-03T12:46:42.451Z,100364.52
2018-03-03T12:49:10.249Z,100362.99
2018-03-03T12:51:37.978Z,100364.80
2018-03-03T12:54:05.724Z,100366.26
2018-03-03T12:56:33.400Z,100364.59
2018-03-03T12:59:01.113Z,100367.38
2018-03-03T13:01:28.790Z,100362.85
2018-03-03T13:03:56.519Z,100364.64
2018-03-03T13:06:24.230Z,100371.45
2018-03-03T13:08:51.985Z,100364.78
2018-03-03T13:11:19.642Z,100361.94
2018-03-03T13:13:47.407Z,100361.84
2018-03-03T13:16:15.172Z,100364.84
2018-03-03T13:18:42.956Z,100355.69
2018-03-03T13:21:10.709Z,100352.27
2018-03-03T13:23:38.473Z,100363.80
2018-03-03T13:26:06.157Z,100365.44
2018-03-03T13:28:33.942Z,100365.69
2018-03-03T13:31:01.617Z,100350.22
2018-03-03T13:33:29.312Z,100351.30
2018-03-03T13:35:57.126Z,100346.48
2018-03-03T13:38:24.976Z,100341.13
2018-03-03T13:40:52.659Z,100342.97
2018-03-03T13:43:20.989Z,100343.48
2018-03-03T13:45:48.894Z,100341.11
2018-03-03T13:48:16.604Z,100328.41
2018-03-03T13:50:44.279Z,100321.31
2018-03-03T13:53:12.004Z,100324.13
2018-03-03T13:55:39.683Z,100316.55
2018-03-03T13:58:07.370Z,100330.28
2018-03-03T14:00:35.066Z,100330.11
2018-03-03T14:03:02.815Z,100324.86
2018-03-03T14:05:30.502Z,100325.04
2018-03-03T14:07:58.358Z,100320.69
2018-03-03T14:10:26.184Z,100321.39
2018-03-03T14:12:53.886Z,100320.33
2018-03-03T14:15:21.618Z,100319.72
2018-03-03T14:17:49.298Z,100318.86
2018-03-03T14:20:17.056Z,100317.81
2018-03-03T14:22:44.751Z,100309.73
2018-03-03T14:25:12.486Z,100310.84
2018-03-03T14:27:40.134Z,100314.36
2018-03-03T14:30:07.827Z,100303.99
2018-03-03T14:32:35.492Z,100301.60
2018-03-03T14:35:03.262Z,100310.22
2018-03-03T14:37:30.895Z,100305.02
2018-03-03T14:39:58.618Z,100312.93
2018-03-03T14:42:26.255Z,100308.00
2018-03-03T14:44:53.987Z,100308.09
2018-03-03T14:47:21.654Z,100316.94
2018-03-03T14:49:49.346Z,100312.06
2018-03-03T14:52:16.985Z,100308.59
2018-03-03T14:54:44.716Z,100303.47
2018-03-03T14:57:12.367Z,100310.12
2018-03-03T14:59:40.062Z,100308.92
2018-03-03T15:02:07.733Z,100304.58
2018-03-03T15:04:35.411Z,100319.61
2018-03-03T15:07:03.109Z,100305.29
2018-03-03T15:09:30.813Z,100306.38
2018-03-03T15:11:58.435Z,100306.26
2018-03-03T15:14:26.130Z,100311.83
2018-03-03T15:16:53.835Z,100314.20
2018-03-03T15:19:21.516Z,100303.95
2018-03-03T15:21:49.207Z,100316.02
2018-03-03T15:24:17.011Z,100308.80
2018-03-03T15:26:44.710Z,100319.48
2018-03-03T15:29:12.420Z,100316.59
2018-03-03T15:31:40.240Z,100332.84
2018-03-03T15:34:07.995Z,100316.64
2018-03-03T15:36:35.690Z,100318.48
2018-03-03T15:39:03.487Z,100322.19
2018-03-03T15:41:31.130Z,100324.03
2018-03-03T15:43:58.910Z,100329.83
2018-03-03T15:46:26.597Z,100324.91
2018-03-03T15:48:54.327Z,100327.86
2018-03-03T15:51:22.033Z,100333.08
2018-03-03T15:53:49.730Z,100326.39
2018-03-03T15:56:17.404Z,100328.70
2018-03-03T15:58:45.077Z,100329.08
2018-03-03T16:01:12.807Z,100333.56
2018-03-03T16:03:40.485Z,100333.33
2018-03-03T16:06:08.230Z,100330.59
2018-03-03T16:08:35.960Z,100334.08
2018-03-03T16:11:03.650Z,100327.23
2018-03-03T16:13:31.392Z,100335.53
2018-03-03T16:15:59.155Z,100338.16
2018-03-03T16:18:26.999Z,100338.78
2018-03-03T16:20:54.846Z,100343.41
2018-03-03T16:23:22.679Z,100341.16
2018-03-03T16:25:50.482Z,100345.58
2018-03-03T16:28:18.258Z,100346.39
2018-03-03T16:30:46.075Z,100345.75
2018-03-03T16:33:13.831Z,100345.71
2018-03-03T16:35:41.518Z,100348.03
2018-03-03T16:38:09.198Z,100350.91
2018-03-03T16:40:37.021Z,100352.95
2018-03-03T16:43:04.736Z,100355.71
2018-03-03T16:45:32.458Z,100357.91
2018-03-03T16:48:00.170Z,100353.92
2018-03-03T16:50:27.875Z,100349.47
2018-03-03T16:52:55.697Z,100348.71
2018-03-03T16:55:23.399Z,100351.87
2018-03-03T16:57:51.088Z,100357.00
2018-03-03T17:00:18.830Z,100351.62
2018-03-03T17:02:46.486Z,100356.24
2018-03-03T17:05:14.210Z,100350.08
2018-03-03T17:07:41.868Z,100356.26
2018-03-03T17:10:09.622Z,100358.23
2018-03-03T17:12:37.290Z,100361.14
2018-03-03T17:15:05.006Z,100368.11
2018-03-03T17:17:32.650Z,100361.66
2018-03-03T17:20:00.359Z,100360.45
2018-03-03T17:22:28.014Z,100366.03
2018-03-03T17:24:55.782Z,100358.45
2018-03-03T17:27:23.466Z,100358.16
2018-03-03T17:29:51.178Z,100371.78
2018-03-03T17:32:18.853Z,100369.27
2018-03-03T17:34:46.514Z,100369.22
2018-03-03T17:37:14.195Z,100374.31
2018-03-03T17:39:41.869Z,100377.55
2018-03-03T17:42:09.590Z,100364.92
2018-03-03T17:44:37.270Z,100371.73
2018-03-03T17:47:04.973Z,100370.75
2018-03-03T17:49:32.813Z,100368.02
2018-03-03T17:52:00.631Z,100369.48
2018-03-03T17:54:28.310Z,100369.27
2018-03-03T17:56:56.046Z,100369.44
2018-03-03T17:59:23.699Z,100371.69
2018-03-03T18:01:51.437Z,100377.13
2018-03-03T18:04:19.185Z,100382.97
2018-03-03T18:06:46.932Z,100375.66
2018-03-03T18:09:14.650Z,100376.05
2018-03-03T18:11:42.377Z,100378.05
2018-03-03T18:14:10.051Z,100373.27
2018-03-03T18:16:37.774Z,100377.46
2018-03-03T18:19:05.426Z,100377.62
2018-03-03T18:21:33.203Z,100376.72
2018-03-03T18:24:00.890Z,100382.81
2018-03-03T18:26:28.609Z,100384.53
2018-03-03T18:28:56.434Z,100389.91
2018-03-03T18:31:24.114Z,100386.91
2018-03-03T18:33:51.800Z,100383.88
2018-03-03T18:36:19.511Z,100386.84
2018-03-03T18:38:47.190Z,100394.19
2018-03-03T18:41:14.918Z,100391.75
2018-03-03T18:43:42.850Z,100387.06
2018-03-03T18:46:10.618Z,100391.09
2018-03-03T18:48:38.410Z,100385.64
2018-03-03T18:51:06.139Z,100395.83
2018-03-03T18:53:33.984Z,100394.17
2018-03-03T18:56:01.749Z,100390.62
2018-03-03T18:58:29.420Z,100393.41
2018-03-03T19:00:57.109Z,100400.58
2018-03-03T19:03:24.766Z,100408.77
2018-03-03T19:05:52.489Z,100406.16
2018-03-03T19:08:20.171Z,100406.39
2018-03-03T19:10:47.855Z,100414.77
2018-03-03T19:13:15.534Z,100415.30
2018-03-03T19:15:43.168Z,100421.25
2018-03-03T19:18:10.886Z,100412.73
2018-03-03T19:20:38.567Z,100417.99
2018-03-03T19:23:06.334Z,100414.71
2018-03-03T19:25:34.052Z,100428.11
2018-03-03T19:28:01.759Z,100422.56
2018-03-03T19:30:29.413Z,100422.12
2018-03-03T19:32:57.135Z,100421.28
2018-03-03T19:35:24.785Z,100419.87
2018-03-03T19:37:52.586Z,100420.09
2018-03-03T19:40:20.322Z,100424.06
2018-03-03T19:42:48.195Z,100428.76
2018-03-03T19:45:16.006Z,100431.72
2018-03-03T19:47:43.860Z,100431.70
2018-03-03T19:50:11.508Z,100435.08
2018-03-03T19:52:39.193Z,100435.25
2018-03-03T19:55:06.837Z,100436.44
2018-03-03T19:57:34.543Z,100439.98
2018-03-03T20:00:02.336Z,100439.05
2018-03-03T20:02:30.054Z,100443.06
2018-03-03T20:04:57.744Z,100448.02
2018-03-03T20:07:25.494Z,100454.59
2018-03-03T20:09:53.155Z,100447.80
2018-03-03T20:12:20.846Z,100448.02
2018-03-03T20:14:48.523Z,100456.12
2018-03-03T20:17:16.230Z,100452.02
2018-03-03T20:19:43.977Z,100453.30
2018-03-03T20:22:11.676Z,100452.31
2018-03-03T20:24:39.426Z,100452.06
2018-03-03T20:27:07.168Z,100456.18
2018-03-03T20:29:34.862Z,100455.07
2018-03-03T20:32:02.555Z,100460.56
2018-03-03T20:34:30.251Z,100460.77
2018-03-03T20:36:58.006Z,100460.43
2018-03-03T20:39:25.691Z,100461.13
2018-03-03T20:41:53.441Z,100468.88
2018-03-03T20:44:21.136Z,100470.45
2018-03-03T20:46:48.890Z,100476.89
2018-03-03T20:49:16.589Z,100473.61
2018-03-03T20:51:44.310Z,100465.17
2018-03-03T20:54:12.001Z,100469.69
2018-03-03T20:56:39.672Z,100463.14
2018-03-03T20:59:07.372Z,100458.13
2018-03-03T21:01:35.086Z,100455.36
2018-03-03T21:04:02.783Z,100460.03
2018-03-03T21:06:30.468Z,100458.80
2018-03-03T21:08:58.181Z,100465.08
2018-03-03T21:11:26.579Z,100465.31
2018-03-03T21:13:54.311Z,100471.16
2018-03-03T21:16:22.014Z,100467.78
2018-03-03T21:18:49.735Z,100473.12
2018-03-03T21:21:17.404Z,100476.16
2018-03-03T21:23:45.096Z,100474.54
2018-03-03T21:26:12.785Z,100473.89
2018-03-03T21:28:40.473Z,100478.94
2018-03-03T21:31:08.114Z,100477.72
2018-03-03T21:33:35.794Z,100473.95
2018-03-03T21:36:03.464Z,100480.67
2018-03-03T21:38:31.330Z,100472.19
2018-03-03T21:40:58.983Z,100478.39
2018-03-03T21:43:26.668Z,100478.21
2018-03-03T21:45:54.314Z,100475.27
2018-03-03T21:48:22.022Z,100478.21
2018-03-03T21:50:49.666Z,100482.46
2018-03-03T21:53:17.387Z,100476.34
2018-03-03T21:55:45.086Z,100482.94
2018-03-03T21:58:12.770Z,100475.84
2018-03-03T22:00:40.413Z,100477.28
2018-03-03T22:03:08.176Z,100484.97
2018-03-03T22:05:35.820Z,100482.97
2018-03-03T22:08:03.591Z,100481.27
2018-03-03T22:10:31.230Z,100479.22
2018-03-03T22:12:58.956Z,100482.61
2018-03-03T22:15:26.593Z,100484.73
2018-03-03T22:17:54.278Z,100483.47
2018-03-03T22:20:21.941Z,100488.37
2018-03-03T22:22:49.625Z,100486.94
2018-03-03T22:25:17.269Z,100491.45
2018-03-03T22:27:45.051Z,100484.40
2018-03-03T22:30:12.704Z,100483.41
2018-03-03T22:32:40.398Z,100476.67
2018-03-03T22:35:08.073Z,100478.23
2018-03-03T22:37:35.779Z,100476.34
2018-03-03T22:40:03.433Z,100471.00
2018-03-03T22:42:31.060Z,100472.03
2018-03-03T22:44:58.750Z,100474.41
2018-03-03T22:47:26.387Z,100468.91
2018-03-03T22:49:54.156Z,100468.36
2018-03-03T22:52:21.824Z,100467.97
2018-03-03T22:54:49.511Z,100459.15
2018-03-03T22:57:17.160Z,100460.94
2018-03-03T22:59:44.871Z,100458.83
2018-03-03T23:02:12.562Z,100450.27
2018-03-03T23:04:40.248Z,100442.88
2018-03-03T23:07:07.881Z,100445.46
2018-03-03T23:09:35.562Z,100445.26
2018-03-03T23:12:03.234Z,100446.59
2018-03-03T23:14:31.006Z,100458.05
2018-03-03T23:16:58.680Z,100453.73
2018-03-03T23:19:26.506Z,100451.63
2018-03-03T23:21:54.156Z,100454.09
2018-03-03T23:24:21.852Z,100459.42
2018-03-03T23:26:49.510Z,100452.12
2018-03-03T23:29:17.186Z,100456.93
2018-03-03T23:31:44.936Z,100462.10
2018-03-03T23:34:12.773Z,100458.27
2018-03-03T23:36:40.418Z,100461.52
2018-03-03T23:39:08.120Z,100466.78
2018-03-03T23:41:35.757Z,100466.83
2018-03-03T23:44:03.483Z,100476.14
2018-03-03T23:46:31.133Z,100474.78
2018-03-03T23:48:58.815Z,100478.30
2018-03-03T23:51:26.610Z,100471.68
2018-03-03T23:53:54.293Z,100467.21
2018-03-03T23:56:21.936Z,100474.56
2018-03-03T23:58:49.693Z,100480.84
